Bayside Blaster — WCT4610 — position and weather

sailwx.info

Track history (hours):
 
Tides and Currents Weather Stations Pressure Air Temp Water Temp Dewpoint Dewpoint Depression Visibility Wind Speed Wind Dir Waves Ship Positions

Bayside Blaster

Owner: SOFGE, CHARLES E, MIAMI, FL. More information available from US FCC via Universal Licensing System.

Last reported at 2018-Feb-20 15:33 UTC. Time now 2018-Feb-23 06:52 UTC.
Position N 25°47' W 080°11'.

Type: Passenger vessel. MMSI: 367037810.

Date/timePositionNaut miles runAvg speedWind from/ knotsBaromVisibWave heightAir tempDewpointWater temp
2018-Feb-20 15:33N 25°47' W 080°11'0 0.0
2018-Feb-20 15:29N 25°47' W 080°11'0 0.3
2018-Feb-20 15:00N 25°47' W 080°11'0 0.0
2018-Feb-20 14:27N 25°47' W 080°11'0 0.0
2018-Feb-20 13:59N 25°47' W 080°11'0 0.0
2018-Feb-20 13:29N 25°47' W 080°11'0 0.0
2018-Feb-20 13:00N 25°47' W 080°11'  
2018-Feb-13 00:28N 25°47' W 080°11'1 2.1
2018-Feb-13 00:00N 25°46' W 080°10'1 2.0
2018-Feb-12 23:30N 25°46' W 080°09'2 2.9
2018-Feb-12 22:52N 25°47' W 080°11'0 0.0
2018-Feb-12 22:28N 25°47' W 080°11'1 2.4
2018-Feb-12 22:00N 25°46' W 080°10'1 1.6
2018-Feb-12 21:30N 25°47' W 080°09'2 3.1
2018-Feb-12 20:57N 25°47' W 080°11'0 0.0
2018-Feb-12 20:29N 25°47' W 080°11'2 4.3
2018-Feb-12 20:00N 25°46' W 080°09'1 1.8
2018-Feb-12 19:30N 25°47' W 080°09'2 2.8
2018-Feb-12 18:55N 25°47' W 080°11'0 0.0
2018-Feb-12 18:30N 25°47' W 080°11'1 2.9
2018-Feb-12 18:00N 25°46' W 080°10'1 1.8
2018-Feb-12 17:30N 25°47' W 080°09'2 2.8
2018-Feb-12 16:56N 25°47' W 080°11'0 0.0
2018-Feb-12 16:26N 25°47' W 080°11'0 0.0
2018-Feb-12 15:59N 25°47' W 080°11'1 1.9
2018-Feb-12 15:29N 25°46' W 080°11'1 2.5
2018-Feb-12 15:00N 25°45' W 080°10'2 3.7
2018-Feb-12 14:28N 25°47' W 080°11'0 0.0
2018-Feb-12 13:58N 25°47' W 080°11'0 0.3
2018-Feb-12 13:25N 25°47' W 080°11'0 0.0
2018-Feb-12 12:58N 25°47' W 080°11'0 0.0
2018-Feb-12 12:28N 25°47' W 080°11'0 0.0
2018-Feb-12 11:58N 25°47' W 080°11'0 0.0
2018-Feb-11 23:23N 25°47' W 080°11'0 0.0
2018-Feb-11 23:00N 25°47' W 080°11'2 4.5
2018-Feb-11 22:30N 25°46' W 080°09'1 1.9
2018-Feb-11 21:59N 25°47' W 080°09'2 3.3
2018-Feb-11 21:30N 25°47' W 080°11'0 0.0
2018-Feb-11 21:00N 25°47' W 080°11'2 4.3
2018-Feb-11 20:30N 25°46' W 080°09'1 1.9
2018-Feb-11 19:59N 25°47' W 080°09'2 2.0
2018-Feb-11 19:14N 25°47' W 080°11'0 0.0
2018-Feb-11 18:56N 25°47' W 080°11'1 2.3
2018-Feb-11 18:30N 25°46' W 080°11'3 6.1
2018-Feb-11 18:00N 25°43' W 080°13'1 1.5
2018-Feb-11 17:30N 25°44' W 080°14'0 0.0
2018-Feb-11 17:00N 25°44' W 080°14'0 0.0
2018-Feb-11 16:30N 25°44' W 080°14'3 5.9
2018-Feb-11 16:00N 25°41' W 080°13'5 9.8
2018-Feb-11 15:30N 25°36' W 080°13'3 1.3
2018-Feb-11 13:16N 25°39' W 080°12'3 9.5
2018-Feb-11 12:59N 25°42' W 080°12'4 9.2
2018-Feb-11 12:30N 25°46' W 080°11'1 1.6
2018-Feb-11 12:00N 25°47' W 080°11'0 0.0
2018-Feb-10 23:31N 25°47' W 080°11'0 0.0
2018-Feb-10 23:23N 25°47' W 080°11'2 5.9
2018-Feb-10 23:00N 25°46' W 080°09'1 2.5
2018-Feb-10 22:30N 25°47' W 080°09'2 2.0
2018-Feb-10 21:43N 25°47' W 080°11'1 4.6
2018-Feb-10 21:30N 25°46' W 080°10'1 1.8
2018-Feb-10 21:00N 25°47' W 080°09'2 2.6
2018-Feb-10 20:22N 25°47' W 080°11'2 5.1
2018-Feb-10 19:59N 25°45' W 080°11'4 7.9
2018-Feb-10 19:30N 25°41' W 080°12'4 8.0
2018-Feb-10 19:00N 25°37' W 080°12'1 0.6
2018-Feb-10 16:43N 25°38' W 080°12'2 8.9
2018-Feb-10 16:30N 25°40' W 080°12'4 6.3
2018-Feb-10 15:56N 25°44' W 080°14'  
Track history (hours):
 
Tides and Currents Weather Stations Pressure Air Temp Water Temp Dewpoint Dewpoint Depression Visibility Wind Speed Wind Dir Waves Ship Positions

Bayside Blaster

Owner: SOFGE, CHARLES E, MIAMI, FL. More information available from US FCC via Universal Licensing System.

Last reported at 2018-Feb-20 15:33 UTC. Time now 2018-Feb-23 06:52 UTC.
Position N 25°47' W 080°11'.

Type: Passenger vessel. MMSI: 367037810.

Date/timePositionNaut miles runAvg speedWind from/ knotsBaromVisibWave heightAir tempDewpointWater temp
2018-Feb-20 15:33N 25°47' W 080°11'0 0.0
2018-Feb-20 15:29N 25°47' W 080°11'0 0.3
2018-Feb-20 15:00N 25°47' W 080°11'0 0.0
2018-Feb-20 14:27N 25°47' W 080°11'0 0.0
2018-Feb-20 13:59N 25°47' W 080°11'0 0.0
2018-Feb-20 13:29N 25°47' W 080°11'0 0.0
2018-Feb-20 13:00N 25°47' W 080°11'  
2018-Feb-13 00:28N 25°47' W 080°11'1 2.1
2018-Feb-13 00:00N 25°46' W 080°10'1 2.0
2018-Feb-12 23:30N 25°46' W 080°09'2 2.9
2018-Feb-12 22:52N 25°47' W 080°11'0 0.0
2018-Feb-12 22:28N 25°47' W 080°11'1 2.4
2018-Feb-12 22:00N 25°46' W 080°10'1 1.6
2018-Feb-12 21:30N 25°47' W 080°09'2 3.1
2018-Feb-12 20:57N 25°47' W 080°11'0 0.0
2018-Feb-12 20:29N 25°47' W 080°11'2 4.3
2018-Feb-12 20:00N 25°46' W 080°09'1 1.8
2018-Feb-12 19:30N 25°47' W 080°09'2 2.8
2018-Feb-12 18:55N 25°47' W 080°11'0 0.0
2018-Feb-12 18:30N 25°47' W 080°11'1 2.9
2018-Feb-12 18:00N 25°46' W 080°10'1 1.8
2018-Feb-12 17:30N 25°47' W 080°09'2 2.8
2018-Feb-12 16:56N 25°47' W 080°11'0 0.0
2018-Feb-12 16:26N 25°47' W 080°11'0 0.0
2018-Feb-12 15:59N 25°47' W 080°11'1 1.9
2018-Feb-12 15:29N 25°46' W 080°11'1 2.5
2018-Feb-12 15:00N 25°45' W 080°10'2 3.7
2018-Feb-12 14:28N 25°47' W 080°11'0 0.0
2018-Feb-12 13:58N 25°47' W 080°11'0 0.3
2018-Feb-12 13:25N 25°47' W 080°11'0 0.0
2018-Feb-12 12:58N 25°47' W 080°11'0 0.0
2018-Feb-12 12:28N 25°47' W 080°11'0 0.0
2018-Feb-12 11:58N 25°47' W 080°11'0 0.0
2018-Feb-11 23:23N 25°47' W 080°11'0 0.0
2018-Feb-11 23:00N 25°47' W 080°11'2 4.5
2018-Feb-11 22:30N 25°46' W 080°09'1 1.9
2018-Feb-11 21:59N 25°47' W 080°09'2 3.3
2018-Feb-11 21:30N 25°47' W 080°11'0 0.0
2018-Feb-11 21:00N 25°47' W 080°11'2 4.3
2018-Feb-11 20:30N 25°46' W 080°09'1 1.9
2018-Feb-11 19:59N 25°47' W 080°09'2 2.0
2018-Feb-11 19:14N 25°47' W 080°11'0 0.0
2018-Feb-11 18:56N 25°47' W 080°11'1 2.3
2018-Feb-11 18:30N 25°46' W 080°11'3 6.1
2018-Feb-11 18:00N 25°43' W 080°13'1 1.5
2018-Feb-11 17:30N 25°44' W 080°14'0 0.0
2018-Feb-11 17:00N 25°44' W 080°14'0 0.0
2018-Feb-11 16:30N 25°44' W 080°14'3 5.9
2018-Feb-11 16:00N 25°41' W 080°13'5 9.8
2018-Feb-11 15:30N 25°36' W 080°13'3 1.3
2018-Feb-11 13:16N 25°39' W 080°12'3 9.5
2018-Feb-11 12:59N 25°42' W 080°12'4 9.2
2018-Feb-11 12:30N 25°46' W 080°11'1 1.6
2018-Feb-11 12:00N 25°47' W 080°11'0 0.0
2018-Feb-10 23:31N 25°47' W 080°11'0 0.0
2018-Feb-10 23:23N 25°47' W 080°11'2 5.9
2018-Feb-10 23:00N 25°46' W 080°09'1 2.5
2018-Feb-10 22:30N 25°47' W 080°09'2 2.0
2018-Feb-10 21:43N 25°47' W 080°11'1 4.6
2018-Feb-10 21:30N 25°46' W 080°10'1 1.8
2018-Feb-10 21:00N 25°47' W 080°09'2 2.6
2018-Feb-10 20:22N 25°47' W 080°11'2 5.1
2018-Feb-10 19:59N 25°45' W 080°11'4 7.9
2018-Feb-10 19:30N 25°41' W 080°12'4 8.0
2018-Feb-10 19:00N 25°37' W 080°12'1 0.6
2018-Feb-10 16:43N 25°38' W 080°12'2 8.9
2018-Feb-10 16:30N 25°40' W 080°12'4 6.3
2018-Feb-10 15:56N 25°44' W 080°14'  

Dump ship's entire track history